Time;durP1;ratioP1;P1;durP2;ratioP2;P2;SDS_P1;SDS_P2;PMS_P1;PMS_P2;Temp;Humidity;BMP_temperature;BMP_pressure;BME280_temperature;BME280_humidity;BME280_pressure;Samples;Min_cycle;Max_cycle;Signal;HPM_P1;HPM_P2
2024/03/31 00:34:01;;;;;;;7.33;6.53;;;9.50;99.90;;;;;;6141822;23;20496;-79
2024/03/31 00:48:20;;;;;;;8.63;7.13;;;9.50;99.90;;;;;;6234040;22;20447;-78
2024/03/31 00:51:31;;;;;;;9.50;6.90;;;9.50;99.90;;;;;;6244467;23;20353;-78
2024/03/31 00:54:09;;;;;;;8.27;7.30;;;9.50;99.90;;;;;;6192146;23;20463;-78
2024/03/31 00:56:44;;;;;;;9.17;6.40;;;9.50;99.90;;;;;;6191754;23;20432;-78
2024/03/31 00:59:19;;;;;;;10.23;8.20;;;9.50;99.90;;;;;;6171687;23;20377;-78
2024/03/31 01:02:28;;;;;;;8.67;6.97;;;9.50;99.90;;;;;;6183209;23;20396;-78
2024/03/31 01:05:15;;;;;;;9.07;7.03;;;9.50;99.90;;;;;;6220738;23;20376;-78
2024/03/31 01:08:14;;;;;;;7.63;6.83;;;9.50;99.90;;;;;;6167678;23;20381;-78
2024/03/31 01:11:03;;;;;;;9.77;7.67;;;9.40;99.90;;;;;;6192830;23;20377;-80
2024/03/31 01:14:01;;;;;;;9.47;7.53;;;9.40;99.90;;;;;;6192438;23;20424;-79
2024/03/31 01:17:01;;;;;;;10.43;8.03;;;9.40;99.90;;;;;;6229252;23;20393;-79
2024/03/31 01:31:23;;;;;;;9.30;7.07;;;9.30;99.90;;;;;;6214684;23;20405;-81
2024/03/31 01:34:13;;;;;;;12.87;9.40;;;9.30;99.90;;;;;;6219402;22;20401;-77
2024/03/31 01:39:38;;;;;;;10.03;8.20;;;9.30;99.90;;;;;;6189738;22;20457;-79
2024/03/31 01:42:25;;;;;;;11.43;9.20;;;9.30;99.90;;;;;;6156908;23;20450;-76
2024/03/31 01:45:15;;;;;;;14.87;10.77;;;9.40;99.90;;;;;;6183048;23;20379;-76
2024/03/31 01:47:53;;;;;;;15.30;11.00;;;9.40;99.90;;;;;;6157513;23;20421;-77
2024/03/31 01:50:45;;;;;;;11.90;9.17;;;9.40;99.90;;;;;;6157318;23;20406;-77
2024/03/31 01:53:27;;;;;;;11.80;7.23;;;9.40;99.90;;;;;;6156335;23;20450;-78
2024/03/31 01:56:22;;;;;;;9.17;7.00;;;9.50;99.90;;;;;;6180181;23;20399;-77
2024/03/31 01:59:12;;;;;;;8.17;6.30;;;9.50;99.90;;;;;;6180572;23;20374;-75
2024/03/31 02:01:40;;;;;;;8.17;6.47;;;9.50;99.90;;;;;;6155070;23;20359;-78
2024/03/31 02:04:46;;;;;;;8.03;5.33;;;9.50;99.90;;;;;;6182959;23;20386;-77
2024/03/31 02:07:23;;;;;;;10.43;6.00;;;9.50;99.90;;;;;;6182815;23;20398;-75
2024/03/31 02:09:52;;;;;;;9.50;5.20;;;9.50;99.90;;;;;;6151865;23;20358;-77
2024/03/31 02:12:33;;;;;;;12.57;4.80;;;9.50;99.90;;;;;;6103993;23;20439;-77
2024/03/31 02:15:21;;;;;;;9.90;5.07;;;9.60;99.90;;;;;;6129018;23;20379;-77
2024/03/31 02:17:59;;;;;;;5.53;4.00;;;9.60;99.90;;;;;;6130517;23;20384;-78
2024/03/31 02:20:38;;;;;;;7.70;4.33;;;9.60;99.90;;;;;;6137974;23;20390;-77
2024/03/31 02:23:16;;;;;;;6.43;4.40;;;9.60;99.90;;;;;;6153528;23;20407;-76
2024/03/31 02:26:03;;;;;;;10.83;4.53;;;9.60;99.90;;;;;;6151818;23;20411;-79
2024/03/31 02:28:34;;;;;;;6.80;3.53;;;9.60;99.90;;;;;;6152431;23;20384;-77
2024/03/31 02:31:17;;;;;;;8.73;4.40;;;9.60;99.90;;;;;;6152135;23;20375;-77
2024/03/31 02:33:43;;;;;;;5.33;3.47;;;9.60;99.90;;;;;;6128461;23;20467;-76
2024/03/31 02:36:31;;;;;;;12.33;4.30;;;9.60;99.90;;;;;;6130641;23;20431;-77
2024/03/31 02:39:02;;;;;;;12.40;3.93;;;9.50;99.90;;;;;;6126705;23;20458;-77
2024/03/31 02:41:30;;;;;;;7.23;4.30;;;9.40;99.90;;;;;;6125818;23;20379;-77
2024/03/31 02:44:00;;;;;;;6.47;3.30;;;9.30;99.90;;;;;;6101483;23;20419;-76
2024/03/31 02:46:27;;;;;;;7.30;4.17;;;9.20;99.90;;;;;;6102717;23;20408;-78
2024/03/31 02:48:57;;;;;;;7.87;4.50;;;9.20;99.90;;;;;;6125312;23;20387;-77
2024/03/31 02:51:36;;;;;;;7.00;3.63;;;9.10;99.90;;;;;;6093153;23;20357;-78
2024/03/31 02:54:17;;;;;;;6.63;3.90;;;9.00;99.90;;;;;;6111064;23;20404;-76
2024/03/31 02:56:57;;;;;;;8.17;4.67;;;9.00;99.90;;;;;;6097314;23;20396;-77
2024/03/31 02:59:28;;;;;;;4.50;4.00;;;8.90;99.90;;;;;;6098695;23;20469;-76
2024/03/31 03:02:01;;;;;;;6.00;4.43;;;8.90;99.90;;;;;;6099687;23;20372;-76
2024/03/31 03:04:40;;;;;;;7.83;4.13;;;8.80;99.90;;;;;;6073751;23;20395;-76
2024/03/31 03:07:10;;;;;;;8.23;4.43;;;8.80;99.90;;;;;;6158899;23;20453;-76
2024/03/31 03:09:43;;;;;;;11.37;4.67;;;8.80;99.90;;;;;;6154661;23;20382;-76
2024/03/31 03:12:14;;;;;;;7.37;4.47;;;8.70;99.90;;;;;;6155953;23;20537;-77
2024/03/31 03:14:45;;;;;;;11.33;4.40;;;8.70;99.90;;;;;;6178797;23;20359;-76
2024/03/31 03:17:15;;;;;;;8.30;3.63;;;8.70;99.90;;;;;;6204113;23;20396;-77
2024/03/31 03:19:46;;;;;;;9.73;3.80;;;8.70;99.90;;;;;;6156197;23;20406;-76
2024/03/31 03:22:20;;;;;;;11.40;5.60;;;8.70;99.90;;;;;;6182168;23;20382;-80
2024/03/31 03:24:52;;;;;;;7.87;4.47;;;8.70;99.90;;;;;;6124642;23;20427;-76
2024/03/31 03:27:19;;;;;;;6.13;3.93;;;8.70;99.90;;;;;;6100401;23;20414;-76
2024/03/31 03:29:45;;;;;;;7.40;4.40;;;8.60;99.90;;;;;;6078484;23;20379;-76
2024/03/31 03:32:19;;;;;;;9.10;4.97;;;8.60;99.90;;;;;;6102435;23;20424;-76
2024/03/31 03:34:51;;;;;;;10.80;4.40;;;8.60;99.90;;;;;;6125193;23;20403;-77
2024/03/31 03:37:19;;;;;;;7.50;4.00;;;8.60;99.90;;;;;;6125257;23;20463;-76
2024/03/31 03:39:50;;;;;;;9.83;4.70;;;8.60;99.90;;;;;;6149734;23;20396;-77
2024/03/31 03:42:20;;;;;;;7.73;5.03;;;8.60;99.90;;;;;;6077154;23;20380;-76
2024/03/31 03:45:07;;;;;;;9.10;4.27;;;8.50;99.90;;;;;;6089214;23;20385;-77
2024/03/31 03:47:34;;;;;;;7.00;5.07;;;8.60;99.90;;;;;;6148718;23;20415;-75
2024/03/31 03:50:00;;;;;;;7.00;4.63;;;8.50;99.90;;;;;;6053164;23;20395;-75
2024/03/31 03:52:26;;;;;;;6.90;5.00;;;8.50;99.90;;;;;;6148856;23;20418;-77
2024/03/31 03:54:53;;;;;;;7.70;4.37;;;8.50;99.90;;;;;;6131079;23;20132;-75
2024/03/31 03:57:20;;;;;;;7.53;4.73;;;8.50;99.90;;;;;;6126787;23;20180;-76
2024/03/31 03:59:46;;;;;;;12.73;4.80;;;8.50;99.90;;;;;;6128789;23;20406;-76
2024/03/31 04:02:12;;;;;;;7.13;4.53;;;8.50;99.90;;;;;;6129749;23;20380;-77
2024/03/31 04:04:38;;;;;;;7.23;4.67;;;8.50;99.90;;;;;;6155423;23;20154;-76
2024/03/31 04:07:04;;;;;;;6.07;4.20;;;8.50;99.90;;;;;;6130774;23;20426;-77
2024/03/31 04:09:30;;;;;;;11.53;4.63;;;8.50;99.90;;;;;;6155347;23;20374;-75
2024/03/31 04:11:56;;;;;;;8.83;4.43;;;8.50;99.90;;;;;;6105944;23;20366;-76
2024/03/31 04:14:22;;;;;;;10.30;5.93;;;8.50;99.90;;;;;;6157879;23;20394;-77
2024/03/31 04:17:00;;;;;;;11.43;4.63;;;8.50;99.90;;;;;;6136998;23;20449;-76
2024/03/31 04:19:27;;;;;;;4.70;4.03;;;8.50;99.90;;;;;;6209354;23;20358;-77
2024/03/31 04:21:57;;;;;;;8.67;4.70;;;8.50;99.90;;;;;;6184381;23;20386;-75
2024/03/31 04:24:25;;;;;;;12.63;4.53;;;8.50;99.90;;;;;;6208968;23;20410;-77
2024/03/31 04:26:52;;;;;;;11.40;4.37;;;8.60;99.90;;;;;;6183818;23;20416;-76
2024/03/31 04:29:22;;;;;;;6.50;3.90;;;8.60;99.90;;;;;;6183530;23;20394;-76
2024/03/31 04:32:16;;;;;;;10.83;4.50;;;8.60;99.90;;;;;;6162370;23;20393;-76
2024/03/31 04:34:42;;;;;;;8.70;3.90;;;8.60;99.90;;;;;;6210486;23;20405;-77
2024/03/31 04:37:11;;;;;;;7.00;4.20;;;8.60;99.90;;;;;;6136926;23;20398;-77
2024/03/31 04:39:40;;;;;;;8.57;3.63;;;8.60;99.90;;;;;;6188201;23;20441;-77
2024/03/31 04:42:33;;;;;;;7.83;3.83;;;8.60;99.90;;;;;;6207199;23;20428;-74
2024/03/31 04:45:48;;;;;;;9.03;4.00;;;8.60;99.90;;;;;;6243528;23;20360;-77
2024/03/31 04:48:18;;;;;;;18.00;4.20;;;8.60;99.90;;;;;;6242617;23;20392;-78
2024/03/31 04:50:48;;;;;;;10.63;4.60;;;8.60;99.90;;;;;;6242097;23;20397;-76
2024/03/31 04:53:18;;;;;;;5.30;3.10;;;8.70;99.90;;;;;;6240979;22;20441;-76
2024/03/31 04:55:49;;;;;;;7.50;3.93;;;8.70;99.90;;;;;;6190072;23;20381;-73
2024/03/31 04:58:39;;;;;;;5.60;3.13;;;8.70;99.90;;;;;;6184665;23;20409;-76
2024/03/31 05:01:07;;;;;;;6.83;3.10;;;8.70;99.90;;;;;;6185343;23;20429;-76
2024/03/31 05:03:45;;;;;;;6.57;4.07;;;8.80;99.90;;;;;;6100875;23;20399;-76
2024/03/31 05:06:14;;;;;;;7.23;3.70;;;8.80;99.90;;;;;;6126080;23;20395;-76
2024/03/31 05:08:42;;;;;;;8.47;3.67;;;8.80;99.90;;;;;;6149792;23;20375;-77
2024/03/31 05:11:08;;;;;;;9.70;3.50;;;8.80;99.90;;;;;;6100179;23;20603;-75
2024/03/31 05:13:38;;;;;;;11.10;3.93;;;8.80;99.90;;;;;;6124881;23;20483;-76
2024/03/31 05:16:13;;;;;;;8.00;4.10;;;8.90;99.90;;;;;;6149646;23;20406;-76
2024/03/31 05:18:41;;;;;;;9.20;3.60;;;8.90;99.90;;;;;;6149874;23;20380;-77
2024/03/31 05:21:14;;;;;;;12.30;3.80;;;9.00;99.90;;;;;;6101519;23;20378;-75
2024/03/31 05:23:45;;;;;;;14.43;4.00;;;9.00;99.90;;;;;;6157618;23;20417;-76
2024/03/31 05:26:17;;;;;;;7.80;3.90;;;9.00;99.90;;;;;;6129553;23;20406;-76
2024/03/31 05:28:46;;;;;;;9.43;3.83;;;8.90;99.90;;;;;;6139480;23;20437;-76
2024/03/31 05:31:39;;;;;;;12.90;4.60;;;9.00;99.90;;;;;;6185486;23;20374;-75
2024/03/31 05:34:34;;;;;;;9.37;4.40;;;9.00;99.90;;;;;;6166861;23;20445;-75
2024/03/31 05:37:05;;;;;;;11.40;3.93;;;9.00;99.90;;;;;;6123091;23;20388;-77
2024/03/31 05:39:31;;;;;;;5.73;3.13;;;9.00;99.90;;;;;;6125913;23;20403;-76
2024/03/31 05:41:58;;;;;;;9.80;3.47;;;9.00;99.90;;;;;;6124442;23;20408;-77
2024/03/31 05:44:24;;;;;;;11.73;3.13;;;9.00;99.90;;;;;;6124600;23;20359;-76
2024/03/31 05:46:51;;;;;;;13.10;3.70;;;9.00;99.90;;;;;;6102921;23;20402;-77
2024/03/31 05:49:17;;;;;;;13.53;2.93;;;9.00;99.90;;;;;;6102355;23;20406;-76
2024/03/31 05:51:52;;;;;;;9.80;4.40;;;9.00;99.90;;;;;;6151994;23;20384;-76
2024/03/31 05:54:40;;;;;;;7.17;3.80;;;9.00;99.90;;;;;;6168449;23;20397;-76
2024/03/31 05:57:08;;;;;;;11.63;3.40;;;9.00;99.90;;;;;;6184041;23;20397;-76
2024/03/31 05:59:40;;;;;;;8.80;3.60;;;9.10;99.90;;;;;;6135628;23;20378;-77
2024/03/31 06:02:24;;;;;;;9.33;3.30;;;9.10;99.90;;;;;;6165230;23;20398;-75
2024/03/31 06:04:57;;;;;;;11.27;4.00;;;9.10;99.90;;;;;;6209123;23;20357;-76
2024/03/31 06:07:24;;;;;;;7.33;2.83;;;9.10;99.90;;;;;;6196092;23;20401;-75
2024/03/31 06:09:59;;;;;;;8.83;3.40;;;9.10;99.90;;;;;;6183672;23;20385;-76
2024/03/31 06:12:34;;;;;;;6.00;3.50;;;9.20;99.90;;;;;;6134447;23;20502;-76
2024/03/31 06:15:02;;;;;;;9.87;3.77;;;9.20;99.90;;;;;;6161213;23;20515;-75
2024/03/31 06:17:34;;;;;;;10.97;3.53;;;9.20;99.90;;;;;;6206153;23;20449;-76
2024/03/31 06:20:19;;;;;;;10.80;4.03;;;9.30;99.90;;;;;;6210312;23;20349;-77
2024/03/31 06:22:48;;;;;;;9.83;3.30;;;9.30;99.90;;;;;;6214916;23;20403;-76
2024/03/31 06:25:19;;;;;;;10.60;3.47;;;9.40;99.90;;;;;;6189586;23;20373;-77
2024/03/31 06:27:48;;;;;;;11.80;3.47;;;9.40;99.90;;;;;;6215030;23;20381;-77
2024/03/31 06:30:18;;;;;;;7.13;3.20;;;9.40;99.90;;;;;;6167961;23;20381;-77
2024/03/31 06:32:50;;;;;;;11.67;3.03;;;9.50;99.90;;;;;;6184550;23;20433;-76
2024/03/31 06:35:17;;;;;;;13.53;3.67;;;9.60;99.90;;;;;;6154393;23;20379;-77
2024/03/31 06:37:51;;;;;;;15.83;4.33;;;9.70;99.90;;;;;;6097155;23;20376;-76
2024/03/31 06:40:45;;;;;;;9.90;2.80;;;9.70;99.90;;;;;;6119595;23;20372;-78
2024/03/31 06:43:15;;;;;;;6.53;3.47;;;9.80;99.90;;;;;;6038322;23;20390;-76
2024/03/31 06:46:06;;;;;;;13.70;3.77;;;9.80;99.90;;;;;;6016668;23;20394;-76
2024/03/31 06:48:42;;;;;;;19.43;3.60;;;9.80;99.90;;;;;;6017867;23;20430;-76
2024/03/31 06:51:12;;;;;;;13.70;3.87;;;9.80;99.90;;;;;;6042004;23;20377;-77
2024/03/31 06:53:41;;;;;;;10.23;3.10;;;9.90;99.90;;;;;;6028044;23;20438;-76
2024/03/31 06:56:18;;;;;;;7.07;3.00;;;9.90;99.90;;;;;;6035899;23;20387;-76
2024/03/31 06:58:49;;;;;;;10.33;3.50;;;9.90;99.90;;;;;;6035591;23;20399;-77
2024/03/31 07:01:25;;;;;;;11.37;3.00;;;10.00;99.90;;;;;;6064701;23;20406;-76
2024/03/31 07:04:12;;;;;;;6.10;2.67;;;10.10;99.90;;;;;;6073360;23;20379;-76
2024/03/31 07:06:52;;;;;;;8.40;2.63;;;10.20;99.90;;;;;;6052559;23;20424;-78
2024/03/31 07:09:21;;;;;;;8.53;2.33;;;10.40;99.90;;;;;;6094563;23;20380;-76
2024/03/31 07:12:13;;;;;;;8.40;2.90;;;10.60;99.90;;;;;;6040420;23;20367;-76
2024/03/31 07:14:44;;;;;;;3.80;2.13;;;10.80;99.90;;;;;;6055489;23;20383;-77
2024/03/31 07:17:34;;;;;;;9.90;2.27;;;11.00;99.90;;;;;;6084898;23;20470;-77
2024/03/31 07:20:32;;;;;;;7.10;1.90;;;11.10;99.90;;;;;;6065027;23;20382;-76
2024/03/31 07:23:34;;;;;;;7.00;2.60;;;11.20;99.90;;;;;;6164381;23;20430;-76
2024/03/31 07:26:24;;;;;;;4.80;2.90;;;11.30;99.90;;;;;;6162828;23;20437;-77
2024/03/31 07:29:02;;;;;;;7.20;2.53;;;11.30;99.90;;;;;;6187111;23;20455;-76
2024/03/31 07:31:31;;;;;;;14.93;3.10;;;11.40;99.90;;;;;;6162814;23;20388;-77
2024/03/31 07:34:20;;;;;;;8.03;2.77;;;11.40;99.90;;;;;;6169500;23;20381;-76
2024/03/31 07:53:32;;;;;;;10.93;1.80;;;12.20;99.90;;;;;;6198123;23;20455;-75
2024/03/31 08:44:18;;;;;;;14.20;1.97;;;13.30;99.90;;;;;;6184223;23;20447;-78
2024/03/31 21:20:06;;;;;;;2.50;1.17;;;11.80;99.90;;;;;;6173691;23;20450;31
2024/03/31 23:29:31;;;;;;;1.70;1.20;;;11.10;99.90;;;;;;6209031;22;20488;-75
